createdAt,value
2022-09-16T00:00:51.900Z,23.89
2022-09-16T00:01:48.759Z,23.59
2022-09-16T00:02:45.690Z,24.48
2022-09-16T00:03:43.020Z,24.39
2022-09-16T00:04:40.457Z,24.23
2022-09-16T00:05:49.582Z,24.27
2022-09-16T00:06:46.260Z,24.02
2022-09-16T00:07:42.966Z,24.26
2022-09-16T00:08:40.449Z,23.96
2022-09-16T00:09:38.378Z,24.23
2022-09-16T00:10:35.699Z,23.76
2022-09-16T00:11:34.518Z,23.27
2022-09-16T00:12:31.353Z,22.56
2022-09-16T00:13:28.404Z,22.02
2022-09-16T00:14:25.169Z,23.02
2022-09-16T00:15:21.853Z,23.12
2022-09-16T00:16:24.527Z,22.87
2022-09-16T00:17:21.818Z,21.98
2022-09-16T00:18:20.448Z,23.01
2022-09-16T00:19:17.774Z,23.62
2022-09-16T00:20:14.624Z,23.07
2022-09-16T00:21:11.810Z,23.49
2022-09-16T00:23:22.651Z,23.03
2022-09-16T00:24:19.414Z,24.21
2022-09-16T00:25:16.161Z,23.43
2022-09-16T00:26:12.846Z,23.79
2022-09-16T00:27:10.697Z,24.28
2022-09-16T00:28:08.138Z,24.06
2022-09-16T00:29:05.137Z,23.77
2022-09-16T00:30:01.927Z,23.36
2022-09-16T00:30:59.996Z,23.17
2022-09-16T00:31:56.916Z,22.93
2022-09-16T00:32:53.928Z,22.88
2022-09-16T00:33:50.607Z,22.37
2022-09-16T00:34:47.293Z,23.00
2022-09-16T00:35:44.004Z,22.62
2022-09-16T00:36:40.716Z,22.33
2022-09-16T00:37:37.395Z,21.89
2022-09-16T00:38:34.111Z,23.03
2022-09-16T00:39:30.914Z,22.23
2022-09-16T00:40:27.653Z,22.14
2022-09-16T00:41:30.759Z,21.83
2022-09-16T00:42:27.638Z,22.41
2022-09-16T00:43:24.310Z,22.71
2022-09-16T00:44:51.788Z,23.19
2022-09-16T00:46:00.080Z,22.95
2022-09-16T00:46:57.477Z,23.53
2022-09-16T00:47:59.595Z,23.43
2022-09-16T00:49:01.044Z,23.09
2022-09-16T00:50:06.435Z,22.97
2022-09-16T00:51:09.269Z,22.93
2022-09-16T00:52:07.329Z,21.89
2022-09-16T00:53:09.363Z,23.46
2022-09-16T00:54:10.084Z,23.34
2022-09-16T00:55:11.320Z,23.59
2022-09-16T00:56:13.132Z,23.32
2022-09-16T00:57:13.496Z,23.47
2022-09-16T00:58:23.684Z,23.64
2022-09-16T00:59:29.990Z,23.77
2022-09-16T01:00:27.379Z,24.03
2022-09-16T01:01:24.199Z,23.59
2022-09-16T01:02:23.926Z,23.61
2022-09-16T01:03:21.359Z,23.25
2022-09-16T01:04:25.906Z,23.62
2022-09-16T01:05:26.717Z,23.58
2022-09-16T01:06:26.725Z,23.11
2022-09-16T01:07:33.016Z,23.60
2022-09-16T01:08:29.828Z,23.77
2022-09-16T01:09:29.276Z,23.59
2022-09-16T01:10:26.729Z,23.57
2022-09-16T01:11:24.313Z,23.34
2022-09-16T01:12:21.231Z,23.51
2022-09-16T01:13:18.750Z,23.64
2022-09-16T01:14:35.940Z,23.95
2022-09-16T01:15:53.677Z,23.85
2022-09-16T01:17:05.539Z,23.81
2022-09-16T01:18:21.624Z,23.81
2022-09-16T01:19:46.157Z,23.92
2022-09-16T01:21:01.402Z,23.83
2022-09-16T01:22:15.788Z,24.08
2022-09-16T01:23:27.613Z,23.87
2022-09-16T01:25:12.041Z,23.88
2022-09-16T01:26:47.570Z,23.11
2022-09-16T01:28:22.058Z,23.91
2022-09-16T01:29:27.506Z,24.07
2022-09-16T01:30:45.472Z,24.01
2022-09-16T01:31:49.588Z,23.92
2022-09-16T01:33:19.070Z,23.58
2022-09-16T01:34:41.695Z,23.57
2022-09-16T01:36:07.476Z,23.69
2022-09-16T01:37:15.059Z,23.53
2022-09-16T01:40:08.603Z,23.21
2022-09-16T01:41:11.018Z,23.75
2022-09-16T01:42:16.593Z,23.84
2022-09-16T01:43:39.166Z,23.42
2022-09-16T01:45:11.967Z,23.54
2022-09-16T01:46:29.918Z,23.58
2022-09-16T01:47:41.557Z,23.63
2022-09-16T01:48:59.354Z,23.06
2022-09-16T01:50:17.479Z,23.66
2022-09-16T01:51:45.430Z,23.49
2022-09-16T01:52:56.819Z,23.56
2022-09-16T01:54:18.858Z,23.89
2022-09-16T01:56:14.115Z,23.16
2022-09-16T01:57:41.234Z,23.32
2022-09-16T01:58:56.305Z,23.28
2022-09-16T02:00:06.573Z,22.85
2022-09-16T02:01:10.460Z,23.09
2022-09-16T02:02:18.238Z,22.70
2022-09-16T02:03:23.195Z,23.26
2022-09-16T02:04:38.711Z,23.43
2022-09-16T02:05:48.147Z,23.98
2022-09-16T02:06:49.778Z,23.09
2022-09-16T02:07:54.974Z,23.22
2022-09-16T02:09:09.320Z,23.66
2022-09-16T02:10:26.662Z,23.31
2022-09-16T02:11:25.457Z,24.26
2022-09-16T02:12:29.497Z,23.29
2022-09-16T02:13:40.134Z,24.01
2022-09-16T02:14:43.916Z,23.70
2022-09-16T02:15:47.155Z,23.60
2022-09-16T02:16:54.767Z,24.29
2022-09-16T02:18:05.961Z,23.65
2022-09-16T02:19:10.687Z,23.87
2022-09-16T02:20:17.340Z,24.15
2022-09-16T02:21:16.459Z,23.45
2022-09-16T02:22:18.416Z,22.60
2022-09-16T02:23:20.778Z,23.11
2022-09-16T02:24:21.605Z,23.94
2022-09-16T02:25:20.960Z,23.42
2022-09-16T02:26:24.762Z,23.19
2022-09-16T02:27:23.179Z,23.54
2022-09-16T02:28:42.349Z,24.00
2022-09-16T02:29:50.582Z,24.27
2022-09-16T02:30:53.225Z,24.39
2022-09-16T02:31:56.934Z,24.42
2022-09-16T02:33:02.670Z,24.14
2022-09-16T02:34:19.839Z,23.56
2022-09-16T02:35:20.917Z,23.97
2022-09-16T02:36:22.601Z,23.97
2022-09-16T02:37:42.207Z,23.88
2022-09-16T02:38:44.337Z,24.23
2022-09-16T02:39:48.476Z,24.09
2022-09-16T02:40:52.566Z,24.31
2022-09-16T02:41:49.529Z,24.14
2022-09-16T02:42:46.236Z,24.07
2022-09-16T02:43:43.412Z,23.96
2022-09-16T02:44:41.005Z,24.08
2022-09-16T02:45:51.415Z,24.18
2022-09-16T02:46:54.050Z,24.06
2022-09-16T02:48:26.167Z,23.72
2022-09-16T02:49:31.757Z,23.02
2022-09-16T02:51:02.969Z,23.30
2022-09-16T02:52:24.104Z,23.14
2022-09-16T02:53:56.486Z,22.16
2022-09-16T02:55:01.094Z,23.22
2022-09-16T02:56:06.245Z,22.45
2022-09-16T02:57:04.799Z,23.26
2022-09-16T02:58:01.600Z,23.68
2022-09-16T02:58:58.959Z,23.09
2022-09-16T02:59:57.055Z,22.98
2022-09-16T03:00:55.598Z,22.99
2022-09-16T03:01:52.613Z,22.90
2022-09-16T03:02:49.744Z,22.97
2022-09-16T03:03:46.878Z,23.12
2022-09-16T03:04:43.545Z,22.81
2022-09-16T03:06:12.815Z,23.31
2022-09-16T03:07:12.401Z,24.10
2022-09-16T03:08:09.116Z,23.63
2022-09-16T03:09:10.114Z,24.25
2022-09-16T03:10:10.370Z,23.10
2022-09-16T03:11:30.414Z,22.90
2022-09-16T03:13:04.916Z,23.10
2022-09-16T03:14:19.755Z,22.74
2022-09-16T03:15:45.137Z,22.38
2022-09-16T03:17:06.673Z,23.07
2022-09-16T03:18:13.328Z,22.87
2022-09-16T03:19:48.142Z,22.90
2022-09-16T03:20:53.225Z,23.65
2022-09-16T03:22:15.026Z,23.27
2022-09-16T03:23:20.882Z,22.38
2022-09-16T03:24:54.037Z,20.94
2022-09-16T03:26:12.049Z,21.32
2022-09-16T03:27:20.754Z,23.16
2022-09-16T03:28:31.834Z,23.06
2022-09-16T03:29:39.801Z,22.73
2022-09-16T03:30:51.335Z,23.54
2022-09-16T03:32:06.507Z,24.11
2022-09-16T03:33:14.905Z,24.24
2022-09-16T03:34:17.714Z,23.95
2022-09-16T03:35:28.558Z,23.18
2022-09-16T03:36:33.536Z,22.70
2022-09-16T03:37:34.434Z,22.29
2022-09-16T03:38:36.018Z,23.30
2022-09-16T03:39:34.409Z,23.80
2022-09-16T03:40:34.155Z,23.79
2022-09-16T03:41:34.029Z,22.99
2022-09-16T03:42:31.550Z,23.25
2022-09-16T03:43:28.242Z,22.51
2022-09-16T03:44:34.899Z,21.93
2022-09-16T03:45:31.595Z,21.30
2022-09-16T03:46:29.037Z,21.42
2022-09-16T03:47:25.774Z,21.45
2022-09-16T03:48:22.484Z,20.59
2022-09-16T03:49:19.194Z,21.61
2022-09-16T03:50:18.043Z,21.48
2022-09-16T03:51:15.087Z,22.11
2022-09-16T03:52:12.095Z,22.31
2022-09-16T03:53:09.450Z,22.06
2022-09-16T03:54:06.308Z,22.44
2022-09-16T03:55:03.303Z,22.42
2022-09-16T03:56:00.050Z,22.04
2022-09-16T03:56:57.009Z,22.40
2022-09-16T03:57:54.955Z,22.11
2022-09-16T03:58:52.089Z,22.63
2022-09-16T03:59:48.838Z,23.17
2022-09-16T04:00:50.808Z,23.00
2022-09-16T04:01:47.894Z,23.32
2022-09-16T04:02:44.720Z,23.41
2022-09-16T04:03:42.071Z,23.67
2022-09-16T04:04:38.972Z,23.70
2022-09-16T04:05:35.666Z,22.99
2022-09-16T04:06:32.377Z,23.05
2022-09-16T04:07:29.329Z,22.89
2022-09-16T04:08:25.968Z,23.48
2022-09-16T04:09:22.920Z,23.53
2022-09-16T04:10:19.806Z,23.71
2022-09-16T04:11:17.641Z,23.57
2022-09-16T04:12:14.507Z,23.64
2022-09-16T04:13:11.188Z,23.44
2022-09-16T04:14:08.791Z,23.08
2022-09-16T04:15:06.000Z,22.88
2022-09-16T04:16:04.877Z,22.23
2022-09-16T04:17:02.402Z,22.53
2022-09-16T04:18:00.335Z,23.04
2022-09-16T04:18:57.467Z,23.38
2022-09-16T04:19:54.177Z,23.25
2022-09-16T04:20:55.818Z,22.83
2022-09-16T04:21:52.555Z,22.88
2022-09-16T04:22:49.308Z,22.69
2022-09-16T04:23:46.105Z,23.38
2022-09-16T04:24:42.791Z,21.40
2022-09-16T04:25:41.006Z,23.25
2022-09-16T04:26:37.744Z,23.08
2022-09-16T04:27:34.446Z,22.83
2022-09-16T04:28:33.523Z,23.42
2022-09-16T04:29:30.205Z,23.15
2022-09-16T04:30:26.911Z,22.51
2022-09-16T04:31:23.800Z,23.23
2022-09-16T04:32:21.228Z,22.48
2022-09-16T04:33:19.744Z,23.27
2022-09-16T04:34:16.489Z,22.74
2022-09-16T04:35:13.187Z,23.57
2022-09-16T04:36:15.817Z,23.63
2022-09-16T04:37:12.643Z,23.88
2022-09-16T04:38:09.341Z,23.16
2022-09-16T04:39:06.493Z,23.37
2022-09-16T04:40:05.224Z,23.32
2022-09-16T04:41:05.022Z,23.55
2022-09-16T04:42:01.799Z,24.07
2022-09-16T04:42:58.867Z,23.79
2022-09-16T04:43:58.320Z,23.21
2022-09-16T04:44:55.074Z,22.95
2022-09-16T04:46:11.401Z,21.92
2022-09-16T04:47:08.186Z,22.64
2022-09-16T04:48:04.878Z,21.66
2022-09-16T04:49:01.603Z,22.35
2022-09-16T04:49:58.498Z,22.61
2022-09-16T04:50:55.325Z,23.38
2022-09-16T04:51:52.341Z,24.09
2022-09-16T04:52:49.173Z,22.43
2022-09-16T04:53:46.836Z,21.90
2022-09-16T04:54:43.588Z,23.37
2022-09-16T04:55:40.295Z,22.63
2022-09-16T04:56:36.969Z,22.19
2022-09-16T04:57:33.639Z,21.80
2022-09-16T04:58:30.335Z,22.00
2022-09-16T04:59:27.013Z,21.53
2022-09-16T05:00:23.764Z,21.79
2022-09-16T05:01:27.409Z,21.33
2022-09-16T05:02:24.443Z,21.02
2022-09-16T05:03:21.252Z,21.77
2022-09-16T05:04:18.006Z,21.67
2022-09-16T05:05:17.191Z,21.68
2022-09-16T05:06:20.487Z,21.47
2022-09-16T05:07:17.627Z,21.78
2022-09-16T05:08:14.383Z,21.79
2022-09-16T05:09:12.522Z,21.54
2022-09-16T05:10:09.370Z,21.69
2022-09-16T05:11:09.351Z,21.81
2022-09-16T05:12:06.763Z,21.80
2022-09-16T05:13:03.553Z,21.60
2022-09-16T05:14:01.930Z,21.67
2022-09-16T05:14:58.874Z,21.87
2022-09-16T05:15:55.585Z,21.04
2022-09-16T05:16:52.443Z,21.98
2022-09-16T05:17:51.673Z,21.11
2022-09-16T05:18:50.432Z,20.39
2022-09-16T05:19:47.537Z,21.73
2022-09-16T05:20:44.215Z,22.10
2022-09-16T05:21:41.092Z,22.01
2022-09-16T05:22:39.026Z,21.70
2022-09-16T05:23:36.294Z,22.16
2022-09-16T05:24:38.590Z,21.81
2022-09-16T05:25:35.262Z,22.40
2022-09-16T05:26:35.277Z,22.03
2022-09-16T05:27:32.723Z,22.44
2022-09-16T05:28:29.466Z,21.84
2022-09-16T05:29:26.141Z,22.28
2022-09-16T05:30:26.072Z,22.37
2022-09-16T05:31:29.119Z,22.38
2022-09-16T05:32:26.043Z,21.67
2022-09-16T05:33:22.726Z,22.27
2022-09-16T05:34:23.154Z,22.16
2022-09-16T05:35:19.824Z,22.17
2022-09-16T05:36:17.976Z,21.92
2022-09-16T05:37:14.707Z,22.07
2022-09-16T05:38:12.245Z,22.22
2022-09-16T05:39:28.759Z,22.12
2022-09-16T05:40:27.656Z,21.80
2022-09-16T05:41:24.626Z,22.37
2022-09-16T05:42:21.962Z,22.00
2022-09-16T05:43:18.638Z,22.48
2022-09-16T05:44:15.686Z,22.52
2022-09-16T05:45:12.502Z,22.48
2022-09-16T05:46:20.946Z,22.18
2022-09-16T05:47:17.770Z,21.71
2022-09-16T05:48:14.487Z,22.48
2022-09-16T05:49:11.331Z,22.43
2022-09-16T05:50:08.395Z,22.50
2022-09-16T05:51:06.924Z,21.97
2022-09-16T05:52:03.784Z,22.63
2022-09-16T05:53:00.530Z,22.71
2022-09-16T05:53:59.716Z,22.53
2022-09-16T05:54:56.426Z,22.67
2022-09-16T05:56:20.792Z,22.18
2022-09-16T05:57:17.755Z,22.68
2022-09-16T05:58:14.540Z,22.68
2022-09-16T05:59:12.965Z,22.72
2022-09-16T06:00:10.517Z,22.79
2022-09-16T06:01:13.138Z,22.84
2022-09-16T06:02:12.722Z,22.89
2022-09-16T06:03:11.027Z,22.83
2022-09-16T06:04:11.972Z,22.89
2022-09-16T06:05:09.572Z,23.01
2022-09-16T06:06:32.223Z,23.11
2022-09-16T06:07:28.859Z,23.07
2022-09-16T06:08:25.539Z,23.25
2022-09-16T06:09:24.930Z,22.59
2022-09-16T06:10:21.598Z,22.99
2022-09-16T06:11:18.683Z,23.21
2022-09-16T06:12:15.458Z,23.20
2022-09-16T06:13:12.188Z,22.44
2022-09-16T06:14:10.594Z,23.32
2022-09-16T06:15:07.861Z,22.70
2022-09-16T06:16:06.679Z,22.72
2022-09-16T06:17:03.867Z,23.46
2022-09-16T06:18:05.587Z,23.49
2022-09-16T06:19:07.103Z,23.53
2022-09-16T06:20:04.052Z,23.51
2022-09-16T06:21:06.127Z,23.53
2022-09-16T06:22:02.839Z,23.40
2022-09-16T06:22:59.623Z,23.40
2022-09-16T06:23:57.466Z,23.33
2022-09-16T06:24:54.228Z,23.30
2022-09-16T06:26:01.277Z,22.79
2022-09-16T06:26:57.942Z,23.24
2022-09-16T06:27:54.636Z,22.92
2022-09-16T06:28:52.379Z,22.62
2022-09-16T06:29:49.058Z,23.42
2022-09-16T06:30:45.820Z,22.70
2022-09-16T06:31:42.716Z,22.78
2022-09-16T06:32:39.470Z,23.46
2022-09-16T06:33:36.832Z,22.69
2022-09-16T06:34:33.569Z,23.17
2022-09-16T06:35:30.552Z,23.25
2022-09-16T06:36:30.446Z,23.27
2022-09-16T06:37:27.122Z,23.37
2022-09-16T06:38:24.942Z,22.54
2022-09-16T06:39:23.735Z,23.52
2022-09-16T06:40:20.490Z,23.59
2022-09-16T06:41:19.393Z,23.70
2022-09-16T06:42:16.070Z,23.50
2022-09-16T06:43:12.727Z,23.59
2022-09-16T06:44:09.622Z,23.70
2022-09-16T06:45:06.674Z,23.85
2022-09-16T06:46:13.716Z,23.46
2022-09-16T06:47:10.709Z,23.79
2022-09-16T06:48:07.405Z,23.85
2022-09-16T06:49:06.133Z,23.34
2022-09-16T06:50:05.216Z,23.70
2022-09-16T06:51:05.621Z,23.70
2022-09-16T06:52:02.496Z,23.34
2022-09-16T06:52:59.161Z,23.84
2022-09-16T06:54:04.339Z,23.79
2022-09-16T06:55:01.327Z,23.57
2022-09-16T06:56:03.811Z,23.82
2022-09-16T06:57:00.522Z,23.78
2022-09-16T06:57:57.234Z,24.13
2022-09-16T06:58:55.635Z,24.17
2022-09-16T06:59:53.249Z,23.45
2022-09-16T07:00:51.086Z,23.70
2022-09-16T07:01:47.823Z,24.45
2022-09-16T07:02:44.613Z,24.20
2022-09-16T07:03:46.350Z,24.31
2022-09-16T07:04:43.227Z,24.65
2022-09-16T07:05:40.283Z,24.52
2022-09-16T07:07:07.489Z,23.85
2022-09-16T07:07:54.512Z,24.54
2022-09-16T07:08:53.828Z,24.43
2022-09-16T07:09:50.629Z,24.60
2022-09-16T07:10:56.817Z,24.49
2022-09-16T07:11:53.552Z,24.89
2022-09-16T07:12:50.288Z,24.75
2022-09-16T07:13:48.962Z,24.75
2022-09-16T07:14:45.667Z,24.81
2022-09-16T07:16:02.404Z,24.93
2022-09-16T07:16:59.155Z,24.72
2022-09-16T07:17:55.919Z,24.38
2022-09-16T07:19:00.719Z,25.25
2022-09-16T07:19:57.937Z,25.30
2022-09-16T07:21:04.618Z,25.34
2022-09-16T07:22:01.338Z,25.21
2022-09-16T07:22:58.712Z,25.45
2022-09-16T07:23:58.088Z,25.32
2022-09-16T07:24:54.769Z,25.26
2022-09-16T07:26:03.430Z,25.65
2022-09-16T07:27:00.134Z,25.50
2022-09-16T07:27:57.009Z,24.85
2022-09-16T07:28:55.191Z,24.98
2022-09-16T07:29:53.714Z,25.41
2022-09-16T07:30:50.498Z,24.91
2022-09-16T07:31:48.082Z,25.45
2022-09-16T07:32:45.002Z,25.56
2022-09-16T07:33:45.096Z,25.14
2022-09-16T07:34:41.772Z,25.08
2022-09-16T07:35:38.543Z,25.35
2022-09-16T07:36:39.272Z,25.25
2022-09-16T07:37:40.577Z,24.97
2022-09-16T07:38:39.566Z,25.30
2022-09-16T07:39:36.330Z,25.52
2022-09-16T07:40:34.366Z,25.56
2022-09-16T07:41:35.659Z,25.33
2022-09-16T07:42:32.567Z,25.01
2022-09-16T07:43:29.244Z,25.45
2022-09-16T07:44:26.203Z,25.51
2022-09-16T07:45:24.547Z,25.34
2022-09-16T07:46:21.884Z,25.27
2022-09-16T07:47:22.090Z,25.18
2022-09-16T07:48:19.099Z,25.57
2022-09-16T07:49:17.092Z,25.56
2022-09-16T07:50:13.797Z,24.89
2022-09-16T07:51:13.145Z,24.89
2022-09-16T07:52:09.886Z,25.04
2022-09-16T07:53:06.650Z,25.16
2022-09-16T07:54:06.740Z,25.76
2022-09-16T07:55:03.558Z,25.64
2022-09-16T07:56:20.853Z,25.93
2022-09-16T07:57:18.421Z,25.95
2022-09-16T07:58:15.105Z,25.90
2022-09-16T07:59:17.706Z,25.64
2022-09-16T08:00:16.529Z,26.01
2022-09-16T08:01:15.302Z,25.94
2022-09-16T08:02:12.258Z,26.01
2022-09-16T08:03:10.090Z,26.04
2022-09-16T08:04:07.072Z,25.91
2022-09-16T08:05:04.137Z,25.79
2022-09-16T08:06:10.539Z,25.99
2022-09-16T08:07:07.538Z,25.78
2022-09-16T08:08:04.314Z,26.15
2022-09-16T08:09:10.524Z,26.27
2022-09-16T08:10:19.095Z,26.25
2022-09-16T08:11:15.902Z,25.98
2022-09-16T08:12:14.616Z,26.39
2022-09-16T08:13:11.401Z,26.07
2022-09-16T08:14:08.110Z,26.50
2022-09-16T08:15:05.383Z,26.60
2022-09-16T08:16:08.123Z,26.72
2022-09-16T08:17:05.022Z,26.72
2022-09-16T08:18:02.227Z,26.77
2022-09-16T08:18:59.291Z,26.68
2022-09-16T08:19:55.978Z,26.89
2022-09-16T08:20:52.667Z,26.61
2022-09-16T08:21:49.788Z,26.88
2022-09-16T08:22:46.479Z,26.56
2022-09-16T08:23:43.901Z,26.67
2022-09-16T08:24:40.596Z,26.81
2022-09-16T08:25:37.278Z,26.59
2022-09-16T08:26:33.961Z,26.80
2022-09-16T08:27:30.653Z,26.66
2022-09-16T08:28:39.785Z,26.69
2022-09-16T08:29:45.484Z,26.48
2022-09-16T08:30:42.837Z,26.26
2022-09-16T08:31:39.706Z,26.35
2022-09-16T08:32:36.930Z,26.62
2022-09-16T08:33:34.450Z,26.80
2022-09-16T08:34:31.221Z,26.87
2022-09-16T08:35:27.940Z,26.91
2022-09-16T08:36:26.147Z,26.28
2022-09-16T08:37:23.397Z,26.58
2022-09-16T08:38:20.069Z,26.86
2022-09-16T08:39:16.790Z,26.53
2022-09-16T08:41:26.226Z,26.84
2022-09-16T08:42:31.011Z,26.81
2022-09-16T08:44:01.889Z,26.78
2022-09-16T08:45:31.047Z,26.36
2022-09-16T08:46:39.760Z,26.84
2022-09-16T08:48:04.207Z,26.90
2022-09-16T08:49:20.808Z,26.26
2022-09-16T08:50:31.602Z,26.69
2022-09-16T08:51:28.854Z,26.73
2022-09-16T08:52:35.837Z,26.65
2022-09-16T08:53:52.884Z,26.54
2022-09-16T08:54:56.302Z,26.58
2022-09-16T08:55:54.601Z,25.81
2022-09-16T08:56:55.023Z,26.01
2022-09-16T08:58:16.591Z,26.41
2022-09-16T08:59:21.559Z,26.24
2022-09-16T09:00:20.133Z,26.05
2022-09-16T09:01:45.261Z,26.61
2022-09-16T09:02:58.239Z,26.77
2022-09-16T09:03:55.252Z,26.59
2022-09-16T09:04:52.099Z,26.11
2022-09-16T09:05:55.443Z,26.54
2022-09-16T09:07:17.043Z,26.12
2022-09-16T09:08:46.863Z,26.40
2022-09-16T09:09:52.646Z,26.40
2022-09-16T09:11:00.832Z,25.98
2022-09-16T09:12:41.914Z,26.37
2022-09-16T09:13:41.920Z,26.50
2022-09-16T09:15:07.126Z,26.43
2022-09-16T09:16:25.777Z,26.64
2022-09-16T09:17:51.447Z,26.72
2022-09-16T09:19:09.849Z,26.70
2022-09-16T09:20:35.499Z,26.71
2022-09-16T09:21:42.948Z,25.32
2022-09-16T09:23:18.091Z,26.92
2022-09-16T09:24:45.932Z,27.06
2022-09-16T09:25:51.658Z,27.06
2022-09-16T09:27:28.749Z,27.11
2022-09-16T09:28:31.249Z,27.03
2022-09-16T09:29:55.245Z,27.09
2022-09-16T09:31:14.595Z,27.13
2022-09-16T09:32:14.131Z,27.18
2022-09-16T09:33:47.534Z,26.89
2022-09-16T09:35:08.723Z,27.00
2022-09-16T09:36:23.893Z,27.13
2022-09-16T09:37:32.751Z,27.21
2022-09-16T09:39:01.578Z,26.91
2022-09-16T09:40:11.195Z,26.95
2022-09-16T09:41:29.347Z,26.72
2022-09-16T09:42:34.590Z,26.25
2022-09-16T09:44:06.519Z,26.89
2022-09-16T09:45:18.434Z,26.90
2022-09-16T09:46:21.040Z,26.95
2022-09-16T09:47:26.239Z,26.04
2022-09-16T09:48:27.458Z,26.70
2022-09-16T09:49:46.659Z,26.12
2022-09-16T09:50:48.912Z,26.34
2022-09-16T09:52:10.902Z,26.59
2022-09-16T09:53:36.705Z,26.79
2022-09-16T09:54:38.598Z,26.47
2022-09-16T09:55:35.779Z,26.54
2022-09-16T09:56:39.956Z,26.50
2022-09-16T09:57:47.010Z,26.48
2022-09-16T09:59:04.703Z,26.36
2022-09-16T10:00:10.361Z,26.14
2022-09-16T10:01:09.037Z,25.26
2022-09-16T10:02:17.106Z,26.10
2022-09-16T10:03:17.683Z,25.69
2022-09-16T10:04:15.964Z,25.97
2022-09-16T10:05:23.094Z,25.56
2022-09-16T10:06:30.126Z,24.76
2022-09-16T10:07:28.637Z,24.69
2022-09-16T10:08:36.219Z,25.44
2022-09-16T10:09:36.001Z,25.36
2022-09-16T10:10:34.772Z,25.48
2022-09-16T10:11:32.622Z,25.15
2022-09-16T10:12:35.092Z,25.14
2022-09-16T10:13:31.880Z,24.97
2022-09-16T10:14:38.010Z,24.13
2022-09-16T10:15:34.839Z,24.76
2022-09-16T10:16:37.490Z,24.63
2022-09-16T10:17:34.625Z,24.33
2022-09-16T10:18:32.477Z,24.29
2022-09-16T10:19:40.897Z,24.13
2022-09-16T10:20:40.648Z,23.90
2022-09-16T10:21:42.129Z,23.01
2022-09-16T10:22:38.822Z,23.77
2022-09-16T10:23:36.572Z,23.84
2022-09-16T10:24:44.608Z,23.28
2022-09-16T10:25:43.201Z,22.99
2022-09-16T10:26:41.162Z,22.42
2022-09-16T10:27:39.044Z,21.96
2022-09-16T10:28:35.798Z,22.22
2022-09-16T10:29:32.451Z,22.23
2022-09-16T10:30:54.625Z,22.29
2022-09-16T10:31:51.959Z,21.46
2022-09-16T10:33:03.663Z,21.35
2022-09-16T10:34:02.801Z,21.39
2022-09-16T10:34:59.539Z,21.74
2022-09-16T10:36:00.910Z,20.96
2022-09-16T10:37:03.406Z,21.78
2022-09-16T10:38:19.193Z,21.53
2022-09-16T10:39:25.722Z,21.54
2022-09-16T10:40:24.143Z,21.05
2022-09-16T10:41:25.427Z,21.42
2022-09-16T10:42:25.453Z,21.34
2022-09-16T10:43:25.082Z,21.11
2022-09-16T10:44:34.549Z,21.34
2022-09-16T10:45:37.384Z,20.45
2022-09-16T10:46:34.495Z,20.75
2022-09-16T10:47:36.258Z,20.68
2022-09-16T10:48:36.407Z,21.07
2022-09-16T10:49:43.918Z,21.11
2022-09-16T10:50:57.413Z,20.62
2022-09-16T10:51:54.320Z,20.83
2022-09-16T10:52:51.453Z,21.06
2022-09-16T10:53:54.070Z,20.23
2022-09-16T10:54:50.798Z,21.25
2022-09-16T10:55:58.119Z,20.61
2022-09-16T10:56:55.342Z,21.26
2022-09-16T10:57:53.485Z,21.11
2022-09-16T10:59:02.305Z,20.83
2022-09-16T11:00:25.175Z,20.90
2022-09-16T11:01:40.756Z,21.07
2022-09-16T11:03:15.730Z,21.23
2022-09-16T11:04:31.073Z,21.22
2022-09-16T11:05:41.107Z,20.96
2022-09-16T11:07:05.706Z,20.94
2022-09-16T11:08:22.366Z,20.99
2022-09-16T11:09:31.338Z,20.99
2022-09-16T11:11:15.482Z,21.46
2022-09-16T11:12:23.835Z,21.59
2022-09-16T11:13:32.524Z,22.04
2022-09-16T11:14:53.652Z,22.34
2022-09-16T11:16:09.107Z,22.66
2022-09-16T11:17:30.407Z,22.81
2022-09-16T11:18:36.054Z,22.67
2022-09-16T11:19:48.543Z,22.11
2022-09-16T11:21:03.588Z,23.16
2022-09-16T11:22:31.952Z,23.10
2022-09-16T11:23:42.308Z,22.94
2022-09-16T11:25:08.782Z,23.11
2022-09-16T11:26:14.049Z,23.10
2022-09-16T11:27:22.726Z,23.15
2022-09-16T11:29:06.049Z,23.22
2022-09-16T11:30:11.662Z,23.27
2022-09-16T11:31:29.929Z,23.40
2022-09-16T11:32:35.253Z,23.45
2022-09-16T11:34:06.842Z,23.57
2022-09-16T11:35:25.120Z,23.64
2022-09-16T11:36:48.533Z,23.73
2022-09-16T11:38:13.834Z,23.52
2022-09-16T11:39:38.298Z,23.91
2022-09-16T11:40:51.965Z,23.72
2022-09-16T11:42:01.003Z,23.22
2022-09-16T11:43:16.440Z,23.23
2022-09-16T11:44:40.249Z,23.29
2022-09-16T11:45:49.555Z,23.35
2022-09-16T11:47:23.868Z,23.41
2022-09-16T11:48:44.105Z,20.48
2022-09-16T11:49:59.327Z,23.26
2022-09-16T11:50:55.991Z,23.56
2022-09-16T11:52:14.420Z,22.67
2022-09-16T11:53:12.503Z,23.76
2022-09-16T11:54:28.557Z,23.62
2022-09-16T11:56:02.572Z,23.33
2022-09-16T11:57:14.540Z,23.50
2022-09-16T11:58:27.660Z,23.35
2022-09-16T11:59:30.252Z,23.17
2022-09-16T12:00:33.763Z,23.51
2022-09-16T12:01:44.853Z,23.49
2022-09-16T12:02:47.488Z,23.24
2022-09-16T12:03:47.708Z,23.56
2022-09-16T12:04:58.690Z,23.30
2022-09-16T12:06:06.435Z,23.45
2022-09-16T12:07:03.765Z,23.64
2022-09-16T12:08:28.158Z,23.58
2022-09-16T12:09:35.137Z,23.38
2022-09-16T12:10:53.286Z,23.55
2022-09-16T12:12:04.148Z,23.54
2022-09-16T12:13:10.622Z,23.52
2022-09-16T12:14:24.849Z,23.59
2022-09-16T12:15:29.745Z,23.31
2022-09-16T12:16:43.711Z,23.49
2022-09-16T12:17:48.463Z,22.93
2022-09-16T12:18:52.387Z,23.48
2022-09-16T12:20:36.822Z,23.40
2022-09-16T12:21:43.042Z,23.42
2022-09-16T12:22:50.251Z,23.46
2022-09-16T12:23:59.949Z,23.32
2022-09-16T12:25:22.958Z,23.49
2022-09-16T12:26:47.540Z,23.01
2022-09-16T12:27:51.006Z,23.35
2022-09-16T12:29:02.472Z,23.39
2022-09-16T12:30:21.195Z,23.39
2022-09-16T12:31:28.075Z,23.40
2022-09-16T12:33:00.132Z,23.09
2022-09-16T12:34:26.559Z,23.01
2022-09-16T12:35:41.597Z,23.10
2022-09-16T12:36:44.220Z,23.11
2022-09-16T12:37:50.987Z,23.04
2022-09-16T12:38:47.837Z,23.10
2022-09-16T12:39:45.345Z,23.26
2022-09-16T12:41:10.882Z,23.17
2022-09-16T12:42:56.511Z,23.18
2022-09-16T12:44:33.447Z,23.24
2022-09-16T12:45:59.609Z,23.23
2022-09-16T12:47:02.603Z,23.13
2022-09-16T12:48:23.439Z,23.16
2022-09-16T12:49:41.771Z,23.04
2022-09-16T12:51:00.185Z,23.16
2022-09-16T12:52:19.103Z,23.04
2022-09-16T12:53:49.292Z,23.01
2022-09-16T12:55:34.995Z,22.85
2022-09-16T12:56:58.738Z,22.12
2022-09-16T12:58:26.483Z,22.70
2022-09-16T12:59:38.363Z,22.87
2022-09-16T13:01:07.703Z,22.87
2022-09-16T13:02:22.649Z,22.57
2022-09-16T13:03:28.793Z,22.40
2022-09-16T13:04:35.301Z,22.42
2022-09-16T13:05:38.301Z,22.20
2022-09-16T13:06:45.227Z,22.25
2022-09-16T13:07:42.220Z,21.88
2022-09-16T13:08:39.022Z,22.13
2022-09-16T13:09:39.597Z,22.07
2022-09-16T13:10:54.576Z,22.30
2022-09-16T13:13:27.878Z,22.00
2022-09-16T13:14:30.226Z,22.09
2022-09-16T13:15:35.585Z,21.97
2022-09-16T13:16:35.688Z,21.81
2022-09-16T13:17:38.770Z,21.80
2022-09-16T13:18:50.370Z,21.64
2022-09-16T13:19:54.023Z,21.69
2022-09-16T13:20:58.652Z,21.41
2022-09-16T13:22:02.793Z,21.30
2022-09-16T13:23:19.325Z,21.48
2022-09-16T13:24:36.992Z,20.59
2022-09-16T13:26:00.406Z,21.57
2022-09-16T13:26:57.635Z,21.54
2022-09-16T13:28:28.263Z,21.72
2022-09-16T13:29:27.919Z,21.61
2022-09-16T13:30:34.997Z,21.61
2022-09-16T13:31:34.186Z,21.24
2022-09-16T13:32:38.529Z,21.62
2022-09-16T13:33:35.287Z,21.60
2022-09-16T13:34:32.068Z,20.88
2022-09-16T13:35:32.566Z,21.57
2022-09-16T13:36:33.149Z,21.55
2022-09-16T13:37:29.780Z,21.42
2022-09-16T13:38:38.759Z,20.74
2022-09-16T13:39:35.519Z,21.77
2022-09-16T13:40:32.488Z,20.83
2022-09-16T13:41:42.947Z,21.96
2022-09-16T13:42:39.765Z,21.35
2022-09-16T13:43:42.338Z,21.89
2022-09-16T13:44:39.340Z,21.84
2022-09-16T13:45:39.958Z,21.93
2022-09-16T13:46:38.317Z,21.84
2022-09-16T13:47:40.327Z,21.74
2022-09-16T13:48:55.004Z,21.45
2022-09-16T13:50:13.219Z,21.20
2022-09-16T13:51:17.427Z,21.38
2022-09-16T13:52:21.991Z,21.59
2022-09-16T13:53:32.041Z,21.64
2022-09-16T13:54:47.935Z,22.01
2022-09-16T13:55:51.342Z,21.04
2022-09-16T13:57:12.582Z,21.99
2022-09-16T13:58:22.741Z,22.04
2022-09-16T13:59:34.211Z,21.81
2022-09-16T14:01:13.449Z,21.82